NWS Home NWS Lubbock West Texas Mesonet Three hour changes as of 0814 PM, Tue Jan 15, 2019

Latest   N   C   S   Daily Sum   3hrΔ   24hrΔ   Soil Data 
Site Map   24hr Precip   72hr Precip   Google Plot


Station Time of Last Temp Now Temp 3h ago Delta-T Dewpoint Now Dewpoint 3hr ago Delta-Td 3hr Press Change (mB)
Reese Center  08:10 PM 44.5 58.3 -13.8 35.1 36.3 -1.1 0.7
Abernathy  08:10 PM 41 57.8 -16.9 34.1 36.1 -2.1 0.8
Plainview  08:10 PM 43.4 59.5 -16.1 35.5 37.3 -1.8 0.9
Tahoka  08:10 PM 43.4 56.6 -13.1 37.2 37.9 -0.8 0.6
Slaton  08:10 PM 45 55.7 -10.7 37.4 38.1 -0.7 0.7
Levelland  08:10 PM 46 61.1 -15.1 35.9 33.8 2.1 0.9
Roaring Springs  08:10 PM 44 58.1 -14.1 39.4 41.1 -1.7 0.8
Floydada  08:10 PM 45.3 58.1 -12.8 35.7 36.5 -0.8 0.7
Ralls  08:10 PM 43.1 57.1 -13.9 35.2 36.2 -0.9 0.5
Brownfield  08:10 PM 43.7 56.3 -12.6 36.1 38.6 -2.5 0.8
Muleshoe  08:10 PM 46.2 62.7 -16.5 28.9 27 1.9 1
Morton  08:10 PM 47.1 63.5 -16.4 34 23 11 1.1
O'Donnell  08:10 PM 45.7 55.5 -9.8 37.3 37.7 -0.4 0.7
Seagraves  08:10 PM 43.2 57.3 -14.1 36.4 38.1 -1.7 0.9
Amherst  08:10 PM 48.3 62.8 -14.5 29.8 24.8 5 1
Plains  08:10 PM 43.9 59.4 -15.5 35.3 36.7 -1.4 0.8
Lamesa  08:10 PM 41.7 54.8 -13.1 37.7 41.2 -3.5 0.7
Hart  08:10 PM 43.3 61.6 -18.2 28.3 25.4 2.9 0.9
Friona  08:10 PM 41.7 60.6 -19 29.1 29.5 -0.4 1.1
Dimmitt  08:10 PM 46.3 61.1 -14.8 30.2 28.7 1.5 1.2
Tulia  08:10 PM 45 60.5 -15.5 33.6 35.2 -1.6 0.9
Silverton  08:10 PM 40.8 60.5 -19.7 32.3 33.9 -1.6 0.9
Post  08:10 PM 45.8 57.4 -11.6 39.9 39.1 0.8 0.7
Seminole  08:10 PM 46.5 57.2 -10.7 36.9 37.1 -0.2 1
Gail  08:10 PM 45.2 54.5 -9.4 39.6 39.7 -0.2 0.6
White River Lake  08:10 PM 44.9 57.4 -12.5 38.2 38.3 -0.1 0.6
Graham  08:10 PM 48.3 55.7 -7.5 39.4 39.9 -0.5 0.8
Sundown  08:10 PM 40.9 60.1 -19.2 34.2 36.2 -2.1 1
Anton  08:10 PM 42.4 60 -17.6 34 34.3 -0.3 0.9
Fluvanna  08:10 PM 44.2 52.8 -8.6 39.3 40.3 -1 0.6
Spur  08:10 PM 43 56 -13 37.6 39.4 -1.8 0.6
Northwest Lubbock  08:10 PM 50.5 58.7 -8.2 37.4 36 1.4 0.8
Guthrie  08:10 PM 45.7 56.3 -10.6 39.3 40 -0.7 0.4
Clarendon  08:10 PM 46.2 56.3 -10.1 37.5 38.8 -1.2 0.7
Paducah  08:10 PM 42.6 55.6 -13 38.8 41.4 -2.5 0.5
Snyder  08:10 PM 44.8 52.7 -7.9 41.7 42.6 -0.9 0.3
Memphis  08:10 PM 45.6 58.5 -12.9 39.2 40.2 -1 0.8
Jayton  08:10 PM 43.6 55.7 -12 39.3 41.3 -2 0.7
Pampa  08:10 PM 40.1 56.3 -16.2 36.1 38.8 -2.8 1
Aspermont  08:10 PM 44.6 53.8 -9.2 40.9 43.1 -2.2 0.7
Hereford  08:10 PM 44.3 61.5 -17.1 28 28.3 -0.3 1
Goodlett  08:10 PM 42 54.1 -12.1 38.7 40.6 -1.8 0.9
McLean  08:10 PM 43.3 53.9 -10.6 37.5 38.1 -0.6 0.6
Denver City  08:10 PM 39.3 58.4 -19.1 32.6 35.2 -2.6 0.9
Lake Alan Henry  08:10 PM 46.1 54.9 -8.8 40.7 41.9 -1.2 0.6
Wolfforth  08:10 PM 43.9 56.7 -12.8 35.8 37.9 -2.1 0.7
Andrews  08:10 PM 47.6 58.8 -11.2 38.4 39.5 -1.1 1.1
Turkey  08:10 PM 45.9 62 -16.1 37.4 38.4 -1 0.9
Childress  08:10 PM 42.9 55.2 -12.3 39 40.2 -1.1 0.6
Tatum  08:10 PM 38.6 60.7 -22.1 32.5 27.4 5 0.8
Northfield  08:10 PM 48.7 61 -12.3 39.2 38 1.2 0.7
Dora  08:10 PM 44.4 59.7 -15.3 29.1 27.5 1.6 0.8
Northwest San Angelo  08:10 PM 43.2 49.6 -6.5 39.4 41.3 -1.9 0.5
Saint Lawrence  08:10 PM 43.7 53.3 -9.6 41 41.9 -0.9 0.6
Haskell  08:10 PM 44.9 52.4 -7.5 41.3 42.8 -1.4 0.5
Wall  08:10 PM 42.1 49.5 -7.3 40.4 42.9 -2.4 0.7
Seymour  08:10 PM 45 51.7 -6.8 41.1 43.3 -2.1 0.1
Knox City  08:10 PM 45.8 54.4 -8.6 42.3 43.5 -1.2 0.5
Guadalupe Mtns Park  08:10 PM 47.3 56.5 -9.2 31.6 33.6 -1.9 0.9
Caprock Canyons   08:10 PM 48.7 61.3 -12.7 36.8 37.1 -0.3 0.7
Odell  08:10 PM 45.6 51.1 -5.6 41.9 42.6 -0.7 0.7
Coyanosa  08:10 PM 47.2 57.2 -10 42.2 42.1 0.1 0.5
Big Lake  08:10 PM 44.3 48.4 -4.2 43.3 42.9 0.4 0.5
Junction  08:10 PM 48.8 49.8 -1 45.4 44.5 0.9 1.1
Hobbs  08:10 PM 43.3 55.9 -12.6 35.6 36.7 -1.2 0.9
Canadian  08:10 PM 44.1 54.4 -10.3 38.6 39.1 -0.5 1.1
Palo Duro Canyon State Park Rim  08:10 PM 47.6 62.9 -15.3 30.1 32.7 -2.6 1.1
Bootleg  08:10 PM 45.7 59.9 -14.2 31.4 29.3 2 1
Sterling City  08:10 PM 42.3 52.3 -10.1 41.3 42.2 -0.9 0.8
Mertzon  08:10 PM 43.2 46.7 -3.5 43 42.5 0.5 0.3
Persimmon Gap  08:05 PM 47 52.3 -5.3 44.5 46 -1.6 0.5
Weinert  08:10 PM 46.3 53.3 -7.1 41.8 42.8 -1 0.6
Claude 12 Southwest  08:10 PM 51.7 61.6 -9.9 34.3 34.4 -0.1 0.9
Amarillo 7 South Southeast  08:10 PM 39.4 63 -23.6 27.9 31.8 -4 1.1
Umbarger  08:10 PM 43.8 63 -19.1 29.4 30.5 -1.1 1.2
Lomax  08:10 PM 44.3 53.5 -9.2 40.3 41.8 -1.4 0.5
Amarillo 9 North Northeast  08:10 PM 44.3 64.2 -19.9 33.3 31.6 1.7 1.2
Aiken  08:10 PM 40.6 58.5 -17.9 33.6 36.7 -3 0.8
Sweetwater  08:10 PM 43.1 49.9 -6.8 40.5 42 -1.5 0.3
Dozier  08:10 PM 44 56.2 -12.2 39.6 40.5 -0.9 0.8
Amarillo 15 North Northwest  08:10 PM 46.1 62.4 -16.3 29.3 32.5 -3.2 1
Menard  08:10 PM 48.2 50 -1.8 44.5 44.3 0.2 0.5
Tarzan  08:10 PM 44 54.9 -10.9 39.3 41.1 -1.8 0.8
Goodnight  08:10 PM 41.5 56 -14.4 36.2 39.8 -3.6 0.8
Boys Ranch   08:10 PM 37 62.1 -25.1 27 28.8 -1.9 1
Fort McKavett  08:10 PM 46.6 48.1 -1.5 44.5 44 0.5 0.5
Fort Chadbourne  08:10 PM 44.3 49.5 -5.2 42.5 42.8 -0.3 0.5
Palo Duro Canyon State Park Floor  08:10 PM 49.7 65.6 -15.8 32.9 33.8 -0.9 1.4
Fort Lancaster  08:10 PM 45.8 48 -2.2 45.8 44.3 1.5 0.6
Dell City 1N  08:10 PM 44.9 63 -18 35.6 38.3 -2.8 1.1
Clyde  08:10 PM 43.3 48.5 -5.2 41.5 42.8 -1.3 0.1
Snyder SSW  08:10 PM 44.3 53 -8.6 41.2 41.9 -0.8 0.5
Panhandle  08:10 PM 41.8 57.9 -16.1 35.3 37.8 -2.5 1
Vigo Park  08:10 PM 42.1 61.6 -19.5 33.3 31.5 1.8 0.9
Welch  08:10 PM 43.6 57.6 -14 37.8 39.6 -1.9 0.7
Throckmorton  08:10 PM 46.5 51.9 -5.4 42.4 42.9 -0.5 0.4
Sierra Blanca  08:10 PM 54 62.5 -8.5 42.9 41.3 1.5 1
Fort Lewis CO  08:10 PM 32.4 36.3 -3.9 30.5 27.4 3.1 0.6
New Home  08:10 PM 43.7 56.3 -12.6 36.6 38.2 -1.5 0.8
McCamey  08:10 PM 46.6 53.9 -7.3 43.6 44.6 -1 0.7
Stamford  08:10 PM 44.1 52.7 -8.5 42.1 44 -1.9 0.3
Crowell  08:10 PM 42.2 53.5 -11.4 40.3 42.9 -2.6 0.7
Stinnett  08:10 PM 45 59.8 -14.9 33.3 31.7 1.5 1.2
Colorado City  08:10 PM 46.9 53.9 -7 42.3 42.4 -0.1 0.5
Happy  08:10 PM 38.5 61 -22.5 27.1 32.5 -5.4 0.9
Endee  08:10 PM 46 63.7 -17.7 33.1 31.1 2 1.3
JA Ranch  08:10 PM 39.8 58.5 -18.7 34.4 39.8 -5.4 1.1
Adrian  08:10 PM 41.6 58.9 -17.4 31.5 32.7 -1.3 0.6
Lesley  08:10 PM 45.2 60.9 -15.7 38.5 40.5 -2 1
Earth  08:10 PM 54.7 63.3 -8.7 30.2 29.3 0.9 0.9
Van Horn  08:10 PM 52.2 65.1 -12.9 44.1 42.2 2 1.3
Rotan  08:10 PM 43.5 53 -9.5 40.1 42.6 -2.4 0.3
Fritch  08:10 PM 47.9 62.4 -14.6 37.3 31.6 5.7 1
Estelline  08:10 PM 46.7 58.4 -11.7 40.2 40.3 -0.1 0.6
Crane  08:10 PM 44.6 56 -11.4 41.5 43.5 -2 0.4
Hackberry  08:10 PM 45.3 54.4 -9.2 41.6 41.9 -0.3 0.4
Romero 11 SSW  08:10 PM 43.4 57.3 -13.9 30.3 30 0.4 0.5
Palo Duro Reservoir 1NW  08:10 PM 39 54.4 -15.3 34.5 37.1 -2.7 1.2
South Plains 3ENE  08:10 PM 44 59.4 -15.4 36.2 36.8 -0.7 0.7
Olton  08:10 PM 40.9 59.6 -18.6 33.1 35.5 -2.4 1.1

West Texas Mesonet Home   Site Map/Menu  NWS Lubbock Soil Data  Daily Summary Page  24hr Precip  72hr Precip  Google Plot